Time;durP1;ratioP1;P1;durP2;ratioP2;P2;SDS_P1;SDS_P2;PMS_P1;PMS_P2;Temp;Humidity;BMP_temperature;BMP_pressure;BME280_temperature;BME280_humidity;BME280_pressure;Samples;Min_cycle;Max_cycle;Signal;HPM_P1;HPM_P2
2023/07/14 00:01:47;;;;;;;2.80;2.05;;;15.90;99.90;;;;;;4976974;28;20208;-91
2023/07/14 00:04:23;;;;;;;3.03;2.00;;;15.80;99.90;;;;;;4977977;28;20603;-91
2023/07/14 00:06:49;;;;;;;3.55;2.15;;;15.80;99.90;;;;;;4995245;28;20172;-90
2023/07/14 00:09:25;;;;;;;5.45;2.25;;;15.80;99.90;;;;;;4977893;28;20202;-90
2023/07/14 00:11:52;;;;;;;7.40;2.45;;;15.70;99.90;;;;;;4994070;28;20179;-91
2023/07/14 00:14:18;;;;;;;3.42;2.20;;;15.60;99.90;;;;;;4977560;28;20184;-90
2023/07/14 00:16:44;;;;;;;5.40;2.50;;;15.70;99.90;;;;;;4994484;28;20176;-89
2023/07/14 00:19:12;;;;;;;4.10;2.45;;;15.60;99.90;;;;;;4977110;28;20180;-90
2023/07/14 00:21:38;;;;;;;3.90;2.08;;;15.50;99.90;;;;;;4995093;28;20208;-90
2023/07/14 00:24:15;;;;;;;4.18;2.10;;;15.40;99.90;;;;;;4977886;28;20266;-90
2023/07/14 00:26:44;;;;;;;3.28;2.17;;;15.40;99.90;;;;;;4995227;28;20171;-90
2023/07/14 00:29:41;;;;;;;4.82;2.30;;;15.40;99.90;;;;;;4993989;28;20246;-89
2023/07/14 00:32:17;;;;;;;4.97;2.28;;;15.30;99.90;;;;;;4994163;28;20188;-90
2023/07/14 00:34:44;;;;;;;4.20;2.28;;;15.30;99.90;;;;;;4993780;28;20263;-91
2023/07/14 00:37:10;;;;;;;3.47;2.47;;;15.20;99.90;;;;;;4994836;28;20311;-90
2023/07/14 00:39:36;;;;;;;4.05;2.22;;;15.10;99.90;;;;;;4977947;28;20208;-90
2023/07/14 00:42:07;;;;;;;3.55;2.35;;;15.10;99.90;;;;;;4981050;28;20267;-90
2023/07/14 00:44:34;;;;;;;4.05;2.25;;;15.10;99.90;;;;;;4997310;28;20259;-90
2023/07/14 00:47:00;;;;;;;3.67;2.50;;;15.00;99.90;;;;;;4981117;28;20243;-90
2023/07/14 00:49:36;;;;;;;3.00;2.35;;;15.00;99.90;;;;;;4981622;28;20190;-91
2023/07/14 00:52:30;;;;;;;4.00;2.40;;;15.00;99.90;;;;;;4996966;28;20183;-90
2023/07/14 00:54:57;;;;;;;2.85;2.20;;;15.00;99.90;;;;;;4980930;28;20547;-90
2023/07/14 00:57:26;;;;;;;5.22;3.15;;;15.00;99.90;;;;;;4981234;28;20184;-90
2023/07/14 00:59:57;;;;;;;3.55;2.25;;;15.00;99.90;;;;;;4980745;28;20210;-90
2023/07/14 01:02:42;;;;;;;3.30;2.17;;;14.90;99.90;;;;;;4981043;28;20183;-91
2023/07/14 01:05:08;;;;;;;2.97;2.28;;;14.90;99.90;;;;;;4980993;28;20228;-90
2023/07/14 01:07:41;;;;;;;3.10;2.78;;;14.80;99.90;;;;;;4998141;28;20208;-90
2023/07/14 01:10:11;;;;;;;2.80;2.53;;;14.80;99.90;;;;;;4978454;28;20230;-90
2023/07/14 01:12:48;;;;;;;4.90;2.83;;;14.80;99.90;;;;;;4980546;28;20251;-90
2023/07/14 01:15:15;;;;;;;4.07;2.47;;;14.70;99.90;;;;;;4980354;28;20171;-90
2023/07/14 01:17:42;;;;;;;4.40;2.60;;;14.70;99.90;;;;;;4980661;28;20195;-90
2023/07/14 01:20:09;;;;;;;3.95;2.90;;;14.60;99.90;;;;;;4980594;28;20204;-90
2023/07/14 01:22:56;;;;;;;4.43;2.75;;;14.60;99.90;;;;;;4996895;28;20234;-90
2023/07/14 01:25:36;;;;;;;3.28;2.67;;;14.60;99.90;;;;;;4980775;28;20179;-90
2023/07/14 01:28:04;;;;;;;4.13;2.88;;;14.60;99.90;;;;;;4980515;28;20234;-90
2023/07/14 01:30:32;;;;;;;3.78;2.55;;;14.50;99.90;;;;;;4980290;28;20182;-90
2023/07/14 01:32:59;;;;;;;3.90;2.60;;;14.50;99.90;;;;;;4996425;28;20192;-90
2023/07/14 01:35:32;;;;;;;3.20;2.70;;;14.50;99.90;;;;;;4997655;28;20183;-90
2023/07/14 01:37:58;;;;;;;2.90;2.45;;;14.50;99.90;;;;;;4980229;28;20176;-90
2023/07/14 01:40:25;;;;;;;4.65;2.83;;;14.50;99.90;;;;;;4997353;28;20245;-90
2023/07/14 01:43:00;;;;;;;6.85;2.70;;;14.40;99.90;;;;;;4996336;28;20257;-91
2023/07/14 01:45:31;;;;;;;3.58;2.83;;;14.40;99.90;;;;;;4997242;28;20246;-90
2023/07/14 01:48:00;;;;;;;3.65;2.90;;;14.40;99.90;;;;;;4980158;28;20219;-89
2023/07/14 01:53:28;;;;;;;3.38;2.60;;;14.40;99.90;;;;;;4995424;28;20220;-89
2023/07/14 01:55:57;;;;;;;3.50;2.67;;;14.30;99.90;;;;;;4979917;28;20211;-88
2023/07/14 01:58:29;;;;;;;3.83;3.00;;;14.30;99.90;;;;;;4979863;28;20234;-89
2023/07/14 02:00:58;;;;;;;3.95;2.67;;;14.30;99.90;;;;;;4997451;28;20654;-88
2023/07/14 02:03:37;;;;;;;4.55;2.72;;;14.30;99.90;;;;;;4979854;28;20171;-89
2023/07/14 02:06:04;;;;;;;4.40;2.67;;;14.30;99.90;;;;;;4979624;28;20207;-89
2023/07/14 02:08:29;;;;;;;2.88;2.50;;;14.20;99.90;;;;;;4979931;28;20204;-89
2023/07/14 02:10:55;;;;;;;5.40;2.80;;;14.20;99.90;;;;;;4996985;28;20242;-88
2023/07/14 02:13:23;;;;;;;5.78;2.33;;;14.20;99.90;;;;;;4979503;28;20176;-89
2023/07/14 02:15:50;;;;;;;5.07;2.90;;;14.20;99.90;;;;;;4979457;28;20622;-88
2023/07/14 02:18:21;;;;;;;7.30;2.60;;;14.20;99.90;;;;;;4979448;28;20184;-88
2023/07/14 02:20:48;;;;;;;4.65;3.00;;;14.20;99.90;;;;;;4979324;28;20175;-87
2023/07/14 02:23:20;;;;;;;3.90;2.88;;;14.10;99.90;;;;;;4997725;28;20583;-89
2023/07/14 02:25:56;;;;;;;3.65;2.60;;;14.10;99.90;;;;;;4998259;28;20171;-88
2023/07/14 02:28:21;;;;;;;4.43;2.63;;;14.20;99.90;;;;;;4998166;28;20661;-87
2023/07/14 02:30:52;;;;;;;4.07;2.78;;;14.20;99.90;;;;;;4998714;28;20198;-88
2023/07/14 02:33:26;;;;;;;5.43;2.40;;;14.20;99.90;;;;;;4998711;28;20302;-88
2023/07/14 02:36:15;;;;;;;3.15;2.40;;;14.20;99.90;;;;;;4998503;28;20178;-88
2023/07/14 02:38:41;;;;;;;5.18;3.13;;;14.20;99.90;;;;;;4998482;28;20201;-89
2023/07/14 02:41:38;;;;;;;6.07;2.70;;;14.10;99.90;;;;;;4997673;28;20262;-88
2023/07/14 02:44:12;;;;;;;4.88;2.50;;;14.10;99.90;;;;;;4997379;28;20266;-89
2023/07/14 02:46:57;;;;;;;5.70;3.45;;;14.00;99.90;;;;;;4998510;28;20544;-89
2023/07/14 02:49:23;;;;;;;5.57;3.15;;;13.90;99.90;;;;;;4998491;28;20179;-88
2023/07/14 02:51:48;;;;;;;7.68;3.50;;;13.90;99.90;;;;;;4997899;28;20392;-88
2023/07/14 02:54:15;;;;;;;5.38;3.05;;;13.90;99.90;;;;;;4997622;28;20187;-90
2023/07/14 02:56:41;;;;;;;5.03;2.88;;;13.80;99.90;;;;;;4998301;28;20644;-88
2023/07/14 02:59:10;;;;;;;4.65;3.10;;;13.80;99.90;;;;;;4998336;28;20179;-87
2023/07/14 03:01:36;;;;;;;5.40;3.10;;;13.90;99.90;;;;;;4997602;28;20171;-88
2023/07/14 03:04:06;;;;;;;4.78;2.97;;;13.90;99.90;;;;;;4997631;28;20187;-88
2023/07/14 03:06:32;;;;;;;4.93;3.17;;;13.80;99.90;;;;;;5015474;28;20170;-88
2023/07/14 03:08:57;;;;;;;5.20;3.22;;;13.80;99.90;;;;;;4998189;28;20306;-89
2023/07/14 03:11:23;;;;;;;6.25;3.38;;;13.80;99.90;;;;;;4998111;28;20257;-88
2023/07/14 03:13:52;;;;;;;7.03;3.10;;;13.90;99.90;;;;;;4998110;28;20191;-88
2023/07/14 03:16:20;;;;;;;4.43;2.95;;;13.90;99.90;;;;;;4997961;28;20167;-87
2023/07/14 03:18:46;;;;;;;4.20;2.97;;;13.90;99.90;;;;;;4997997;28;20233;-89
2023/07/14 03:21:12;;;;;;;8.75;3.20;;;13.90;99.90;;;;;;5015097;28;20187;-87
2023/07/14 03:23:40;;;;;;;3.70;3.10;;;13.90;99.90;;;;;;4998076;28;20183;-89
2023/07/14 03:26:08;;;;;;;5.55;3.13;;;13.90;99.90;;;;;;4998082;28;20250;-88
2023/07/14 03:28:34;;;;;;;3.55;2.83;;;13.90;99.90;;;;;;4997950;28;20219;-89
2023/07/14 03:31:04;;;;;;;4.85;3.20;;;13.90;99.90;;;;;;5015315;28;20193;-87
2023/07/14 03:33:34;;;;;;;5.75;2.60;;;14.00;99.90;;;;;;5015047;28;20171;-88
2023/07/14 03:36:05;;;;;;;4.80;2.70;;;14.00;99.90;;;;;;4997970;28;20176;-87
2023/07/14 03:38:39;;;;;;;3.78;2.67;;;14.00;99.90;;;;;;4997563;28;20319;-87
2023/07/14 03:41:04;;;;;;;5.50;3.13;;;14.00;99.90;;;;;;4997779;28;20175;-88
2023/07/14 03:43:41;;;;;;;7.32;3.00;;;13.90;99.90;;;;;;4997798;28;20628;-88
2023/07/14 03:46:07;;;;;;;5.10;2.83;;;13.90;99.90;;;;;;4998125;28;20185;-89
2023/07/14 03:48:33;;;;;;;5.65;2.90;;;13.90;99.90;;;;;;4997723;28;20550;-89
2023/07/14 03:51:01;;;;;;;7.72;3.17;;;13.90;99.90;;;;;;4997449;28;20373;-88
2023/07/14 03:53:40;;;;;;;4.80;3.20;;;13.90;99.90;;;;;;4997543;28;20183;-88
2023/07/14 03:56:06;;;;;;;4.97;2.80;;;13.90;99.90;;;;;;4997774;28;20175;-87
2023/07/14 03:58:31;;;;;;;6.68;3.00;;;13.90;99.90;;;;;;5015137;28;20182;-88
2023/07/14 04:01:00;;;;;;;4.90;2.75;;;13.90;99.90;;;;;;4997553;28;20214;-87
2023/07/14 04:03:26;;;;;;;4.50;2.72;;;13.90;99.90;;;;;;4997474;28;20179;-89
2023/07/14 04:05:52;;;;;;;4.90;2.80;;;14.00;99.90;;;;;;4997726;28;20176;-87
2023/07/14 04:08:17;;;;;;;6.53;2.80;;;14.00;99.90;;;;;;4997423;28;20553;-89
2023/07/14 04:10:43;;;;;;;7.90;2.78;;;14.00;99.90;;;;;;4997416;28;20218;-88
2023/07/14 04:13:10;;;;;;;3.83;2.70;;;14.00;99.90;;;;;;5014981;28;20183;-88
2023/07/14 04:15:36;;;;;;;4.07;2.55;;;14.10;99.90;;;;;;4999132;28;20175;-88
2023/07/14 04:18:02;;;;;;;3.35;2.50;;;14.10;99.90;;;;;;5001071;28;20183;-89
2023/07/14 04:20:28;;;;;;;4.78;2.50;;;14.10;99.90;;;;;;5001487;28;20175;-89
2023/07/14 04:22:54;;;;;;;7.38;2.85;;;14.10;99.90;;;;;;5001021;28;20187;-88
2023/07/14 04:25:26;;;;;;;6.80;2.65;;;14.20;99.90;;;;;;5001229;28;20517;-89
2023/07/14 04:27:52;;;;;;;6.20;3.03;;;14.20;99.90;;;;;;5001190;28;20206;-89
2023/07/14 04:30:18;;;;;;;4.95;2.88;;;14.30;99.90;;;;;;5000828;28;20210;-88
2023/07/14 04:32:45;;;;;;;5.18;2.97;;;14.30;99.90;;;;;;5000593;28;20613;-88
2023/07/14 04:35:11;;;;;;;3.53;2.60;;;14.30;99.90;;;;;;5000933;28;20179;-88
2023/07/14 04:37:37;;;;;;;4.53;2.70;;;14.30;99.90;;;;;;4993615;28;20528;-88
2023/07/14 04:40:05;;;;;;;2.80;2.30;;;14.40;99.90;;;;;;4993859;28;20183;-89
2023/07/14 04:42:30;;;;;;;8.15;3.00;;;14.40;99.90;;;;;;4991492;28;20180;-87
2023/07/14 04:45:02;;;;;;;4.35;2.45;;;14.40;99.90;;;;;;5000759;28;20175;-91
2023/07/14 04:47:28;;;;;;;5.15;2.75;;;14.50;99.90;;;;;;5000642;28;20270;-88
2023/07/14 04:49:53;;;;;;;3.90;2.67;;;14.60;99.90;;;;;;5000577;28;20207;-90
2023/07/14 04:52:19;;;;;;;4.75;2.90;;;14.70;99.90;;;;;;5000219;28;20696;-88
2023/07/14 04:54:45;;;;;;;3.75;2.80;;;14.70;99.90;;;;;;5000959;28;20265;-91
2023/07/14 04:57:10;;;;;;;3.33;2.30;;;14.80;99.90;;;;;;5001004;28;20183;-91
2023/07/14 04:59:38;;;;;;;7.53;2.70;;;14.80;99.90;;;;;;5000547;28;20185;-90
2023/07/14 05:02:05;;;;;;;6.22;2.80;;;14.90;99.90;;;;;;5000337;28;20181;-90
2023/07/14 05:04:38;;;;;;;4.18;2.83;;;15.00;99.90;;;;;;5000201;28;20213;-90
2023/07/14 05:07:04;;;;;;;5.68;2.58;;;15.10;99.90;;;;;;4999848;28;20179;-90
2023/07/14 05:09:29;;;;;;;6.78;3.10;;;15.10;99.90;;;;;;4999965;28;20198;-93
2023/07/14 05:11:55;;;;;;;6.78;2.53;;;15.20;99.90;;;;;;5000389;28;20175;-89
2023/07/14 05:14:29;;;;;;;4.35;2.83;;;15.30;99.90;;;;;;5000342;28;20183;-89
2023/07/14 05:16:54;;;;;;;9.55;3.22;;;15.30;99.90;;;;;;5000079;28;20270;-91
2023/07/14 05:19:20;;;;;;;6.47;3.10;;;15.40;99.90;;;;;;5000242;28;20269;-94
2023/07/14 05:21:46;;;;;;;5.55;2.80;;;15.40;99.90;;;;;;5000279;28;20287;-91
2023/07/14 05:24:13;;;;;;;5.53;2.60;;;15.50;99.90;;;;;;5000128;28;20653;-92
2023/07/14 05:26:39;;;;;;;6.78;3.08;;;15.50;99.90;;;;;;5000382;28;20179;-92
2023/07/14 05:29:05;;;;;;;6.78;2.90;;;15.50;99.90;;;;;;5000405;28;20237;-92
2023/07/14 05:31:32;;;;;;;4.47;2.97;;;15.50;99.90;;;;;;5000124;28;20529;-90
2023/07/14 05:33:58;;;;;;;6.53;3.38;;;15.50;99.90;;;;;;4999952;28;20179;-90
2023/07/14 05:36:25;;;;;;;6.05;3.25;;;15.60;99.90;;;;;;5000414;28;20180;-91
2023/07/14 05:38:51;;;;;;;4.15;3.03;;;15.70;99.90;;;;;;5000019;28;20185;-91
2023/07/14 05:41:17;;;;;;;8.18;2.97;;;15.80;99.90;;;;;;4999847;28;20179;-90
2023/07/14 05:43:42;;;;;;;6.45;2.83;;;15.80;99.90;;;;;;4999703;28;20183;-93
2023/07/14 05:46:09;;;;;;;6.38;2.90;;;15.90;99.90;;;;;;5000699;28;20184;-94
2023/07/14 05:48:35;;;;;;;4.75;2.58;;;16.00;99.90;;;;;;5000195;28;20578;-89
2023/07/14 05:51:00;;;;;;;5.82;3.03;;;16.10;99.90;;;;;;4999478;28;20222;-88
2023/07/14 05:53:27;;;;;;;6.05;2.47;;;16.10;99.90;;;;;;4999196;28;20176;-89
2023/07/14 05:55:56;;;;;;;8.05;2.78;;;16.10;99.90;;;;;;4999636;28;20176;-89
2023/07/14 05:58:21;;;;;;;4.75;3.08;;;16.10;99.90;;;;;;4999454;28;20230;-90
2023/07/14 06:00:47;;;;;;;6.38;2.50;;;16.20;99.90;;;;;;4999491;28;20551;-91
2023/07/14 06:03:18;;;;;;;4.43;2.78;;;16.20;99.90;;;;;;4999076;28;20217;-94
2023/07/14 06:05:46;;;;;;;6.00;2.72;;;16.30;99.90;;;;;;4999584;28;20179;-88
2023/07/14 06:08:13;;;;;;;6.38;2.65;;;16.30;99.90;;;;;;4998786;28;20719;-91
2023/07/14 06:10:38;;;;;;;5.30;2.88;;;16.40;99.90;;;;;;4999333;28;20199;-89
2023/07/14 06:13:04;;;;;;;7.30;3.15;;;16.40;99.90;;;;;;4998903;28;20642;-88
2023/07/14 06:15:30;;;;;;;5.45;3.10;;;16.40;99.90;;;;;;4999065;28;20500;-90
2023/07/14 06:17:56;;;;;;;6.10;3.00;;;16.50;99.90;;;;;;4998896;28;20174;-88
2023/07/14 06:20:22;;;;;;;5.93;2.75;;;16.50;99.90;;;;;;4998896;28;20571;-90
2023/07/14 06:22:48;;;;;;;6.97;3.08;;;16.60;99.90;;;;;;4998247;28;20193;-92
2023/07/14 06:25:15;;;;;;;4.53;2.97;;;16.60;99.90;;;;;;4998677;28;20233;-91
2023/07/14 06:27:40;;;;;;;6.82;3.03;;;16.70;99.90;;;;;;4998966;28;20210;-91
2023/07/14 06:30:07;;;;;;;6.88;3.17;;;16.70;99.90;;;;;;4998881;28;20191;-89
2023/07/14 06:32:32;;;;;;;5.95;3.28;;;16.70;99.90;;;;;;4998887;28;20187;-90
2023/07/14 06:35:01;;;;;;;5.35;2.90;;;16.80;99.90;;;;;;4999255;28;20186;-89
2023/07/14 06:37:27;;;;;;;7.07;3.22;;;16.90;99.90;;;;;;4998035;28;20167;-88
2023/07/14 06:39:53;;;;;;;4.25;2.95;;;17.00;99.90;;;;;;4998913;28;20525;-90
2023/07/14 06:42:19;;;;;;;5.80;3.40;;;17.10;99.90;;;;;;4998745;28;20226;-89
2023/07/14 06:44:45;;;;;;;7.28;3.60;;;17.20;99.90;;;;;;4998411;28;20202;-90
2023/07/14 06:47:14;;;;;;;8.80;3.35;;;17.30;99.90;;;;;;4998469;28;20209;-91
2023/07/14 06:49:40;;;;;;;5.72;3.20;;;17.40;99.90;;;;;;4998311;28;20620;-90
2023/07/14 06:52:07;;;;;;;8.50;3.20;;;17.50;99.90;;;;;;4997905;28;20230;-89
2023/07/14 06:54:32;;;;;;;5.82;3.72;;;17.60;99.90;;;;;;5015724;28;20179;-88
2023/07/14 06:56:59;;;;;;;7.47;3.45;;;17.80;99.90;;;;;;4998348;28;20175;-90
2023/07/14 06:59:25;;;;;;;9.27;3.10;;;17.90;99.90;;;;;;4998290;28;20179;-91
2023/07/14 07:01:51;;;;;;;9.05;4.97;;;18.10;99.90;;;;;;4998064;28;20261;-92
2023/07/14 07:04:16;;;;;;;8.57;5.05;;;18.20;99.90;;;;;;4998246;28;20183;-93
2023/07/14 07:06:44;;;;;;;6.43;4.18;;;18.40;99.90;;;;;;4998363;28;20176;-92
2023/07/14 07:09:10;;;;;;;9.90;4.20;;;18.50;99.90;;;;;;4998333;28;20350;-91
2023/07/14 07:11:35;;;;;;;6.75;4.30;;;18.70;99.90;;;;;;4998254;28;20211;-91
2023/07/14 07:14:02;;;;;;;9.27;4.25;;;18.80;99.90;;;;;;4998354;28;20179;-91
2023/07/14 07:16:30;;;;;;;6.03;3.47;;;19.00;99.90;;;;;;4998122;28;20179;-94
2023/07/14 07:18:58;;;;;;;7.85;4.15;;;19.30;99.90;;;;;;4997937;28;20167;-92
2023/07/14 07:21:23;;;;;;;7.13;3.88;;;19.40;99.90;;;;;;5015394;28;20222;-89
2023/07/14 07:23:49;;;;;;;7.70;4.55;;;19.50;99.90;;;;;;4997664;28;20230;-91
2023/07/14 07:26:15;;;;;;;5.93;3.40;;;19.60;99.90;;;;;;4998086;28;20217;-89
2023/07/14 07:28:40;;;;;;;5.18;3.25;;;19.70;99.90;;;;;;4997921;28;20206;-91
2023/07/14 07:31:09;;;;;;;5.35;2.97;;;19.80;99.90;;;;;;4998089;28;20175;-92
2023/07/14 07:33:36;;;;;;;5.20;3.50;;;20.00;99.90;;;;;;4998226;28;20278;-92
2023/07/14 07:36:16;;;;;;;6.20;2.88;;;20.10;99.90;;;;;;4998171;28;20211;-91
2023/07/14 07:38:51;;;;;;;5.28;3.10;;;20.30;99.90;;;;;;4997157;28;20175;-90
2023/07/14 07:41:21;;;;;;;6.25;3.00;;;20.30;99.90;;;;;;4997231;28;20182;-91
2023/07/14 07:43:47;;;;;;;7.05;3.10;;;20.50;99.90;;;;;;4997881;28;20180;-91
2023/07/14 07:46:21;;;;;;;6.20;2.80;;;20.50;99.90;;;;;;4997800;28;20261;-91
2023/07/14 07:48:47;;;;;;;6.40;2.85;;;20.60;99.90;;;;;;4998377;28;20356;-91
2023/07/14 07:51:14;;;;;;;8.05;2.72;;;20.70;99.90;;;;;;5001237;28;20318;-91
2023/07/14 07:53:40;;;;;;;5.75;2.30;;;20.90;99.90;;;;;;5001504;28;20270;-89
2023/07/14 07:56:10;;;;;;;6.10;2.60;;;21.00;99.90;;;;;;5002124;28;20672;-91
2023/07/14 07:58:36;;;;;;;4.35;2.42;;;21.10;99.90;;;;;;5001406;28;20185;-92
2023/07/14 08:01:04;;;;;;;8.45;2.35;;;21.10;99.90;;;;;;5001076;28;20182;-90
2023/07/14 08:03:31;;;;;;;6.75;2.90;;;21.10;99.90;;;;;;5001102;28;20182;-93
2023/07/14 08:06:09;;;;;;;4.95;2.22;;;21.10;99.90;;;;;;5001685;28;20287;-90
2023/07/14 08:08:35;;;;;;;5.35;2.35;;;21.20;99.90;;;;;;5001517;28;20653;-89
2023/07/14 08:11:02;;;;;;;7.55;2.40;;;21.40;99.90;;;;;;5019011;28;20250;-92
2023/07/14 08:13:29;;;;;;;6.32;2.65;;;21.50;99.90;;;;;;5001557;28;20218;-94
2023/07/14 08:15:57;;;;;;;6.00;2.55;;;21.50;99.90;;;;;;5001600;28;20233;-88
2023/07/14 08:18:23;;;;;;;3.88;2.38;;;21.50;99.90;;;;;;5001336;28;20629;-90
2023/07/14 08:20:50;;;;;;;5.43;2.88;;;21.60;99.90;;;;;;5001476;28;20188;-92
2023/07/14 08:23:19;;;;;;;6.47;2.20;;;21.60;99.90;;;;;;5001324;28;20191;-91
2023/07/14 08:25:51;;;;;;;3.42;2.10;;;21.70;99.90;;;;;;5001248;28;20187;-92
2023/07/14 08:28:18;;;;;;;6.82;2.47;;;21.80;99.90;;;;;;5001019;28;20213;-89
2023/07/14 08:30:49;;;;;;;5.68;2.05;;;21.80;99.90;;;;;;5001114;28;20175;-90
2023/07/14 08:33:16;;;;;;;4.53;2.10;;;21.90;99.90;;;;;;5001434;28;20186;-95
2023/07/14 08:35:42;;;;;;;7.10;2.80;;;21.90;99.90;;;;;;5019067;28;20694;-90
2023/07/14 08:38:09;;;;;;;5.28;2.47;;;21.80;99.90;;;;;;5002260;28;20183;-90
2023/07/14 08:40:47;;;;;;;7.72;2.50;;;21.90;99.90;;;;;;5000842;28;20175;-89
2023/07/14 08:43:31;;;;;;;8.75;2.92;;;21.90;99.90;;;;;;5000853;28;20334;-89
2023/07/14 08:46:09;;;;;;;5.07;2.40;;;21.90;99.90;;;;;;5001086;28;20206;-91
2023/07/14 08:48:41;;;;;;;3.03;1.70;;;21.90;99.90;;;;;;5000872;28;20294;-90
2023/07/14 08:51:20;;;;;;;4.75;2.25;;;21.90;99.90;;;;;;5000778;28;20258;-89
2023/07/14 08:54:02;;;;;;;4.38;2.08;;;22.00;99.90;;;;;;5000431;28;20179;-91
2023/07/14 08:56:33;;;;;;;4.47;2.38;;;22.20;99.90;;;;;;5001306;28;20224;-90
2023/07/14 08:58:59;;;;;;;5.68;2.30;;;22.20;99.90;;;;;;5000564;28;20175;-91
2023/07/14 09:01:59;;;;;;;3.45;1.92;;;22.30;99.90;;;;;;4999894;28;20187;-93
2023/07/14 09:04:29;;;;;;;3.22;1.90;;;22.40;99.90;;;;;;4958853;28;20279;-92
2023/07/14 09:06:56;;;;;;;4.72;2.53;;;22.50;99.30;;;;;;5000382;28;20179;-87
2023/07/14 09:09:31;;;;;;;3.50;2.05;;;22.50;99.90;;;;;;5000185;28;20215;-91
2023/07/14 09:12:16;;;;;;;3.47;1.73;;;22.60;99.90;;;;;;5018236;28;20250;-87
2023/07/14 09:14:48;;;;;;;4.85;1.95;;;22.60;99.90;;;;;;5000386;28;20979;-93
2023/07/14 09:17:38;;;;;;;7.68;2.13;;;22.70;99.90;;;;;;5001230;28;20270;-91
2023/07/14 09:20:12;;;;;;;5.53;2.35;;;22.80;99.60;;;;;;5019851;28;20574;-94
2023/07/14 09:22:49;;;;;;;3.22;1.90;;;22.70;99.00;;;;;;5002314;28;20625;-92
2023/07/14 09:25:29;;;;;;;2.83;1.80;;;22.70;99.00;;;;;;5000202;28;20179;-91
2023/07/14 09:27:56;;;;;;;5.07;2.33;;;22.80;99.90;;;;;;5017533;28;20221;-94
2023/07/14 09:30:27;;;;;;;6.30;2.53;;;22.90;99.00;;;;;;5003196;28;20171;-94
2023/07/14 09:33:03;;;;;;;3.95;1.83;;;22.90;98.60;;;;;;5000375;28;20167;-95
2023/07/14 09:35:30;;;;;;;3.80;2.20;;;23.10;98.90;;;;;;5000092;28;20178;-92
2023/07/14 09:38:14;;;;;;;3.47;2.08;;;23.10;99.00;;;;;;4999888;28;20232;-91
2023/07/14 09:40:43;;;;;;;3.75;1.80;;;23.20;98.50;;;;;;4999833;28;20225;-93
2023/07/14 09:43:10;;;;;;;5.45;1.95;;;23.30;97.70;;;;;;4999586;28;20237;-92
2023/07/14 09:45:39;;;;;;;7.93;1.92;;;23.30;95.70;;;;;;5002191;28;20229;-93
2023/07/14 09:48:31;;;;;;;2.38;1.67;;;23.40;96.90;;;;;;5000613;28;20265;-92
2023/07/14 09:51:06;;;;;;;3.88;2.17;;;23.50;98.50;;;;;;5000147;28;20551;-96
2023/07/14 09:53:35;;;;;;;3.92;1.80;;;23.60;97.90;;;;;;4999450;28;20559;-93
2023/07/14 09:56:10;;;;;;;3.25;1.70;;;23.60;96.90;;;;;;4999726;28;20423;-93
2023/07/14 09:58:58;;;;;;;3.20;1.75;;;23.70;97.20;;;;;;5000705;28;20182;-91
2023/07/14 10:01:23;;;;;;;5.85;2.22;;;23.70;98.00;;;;;;4999738;28;20291;-90
2023/07/14 10:03:56;;;;;;;4.60;1.73;;;23.70;96.30;;;;;;4999940;28;20507;-94
2023/07/14 10:06:26;;;;;;;3.28;1.92;;;23.90;97.90;;;;;;4999708;28;20186;-91
2023/07/14 10:09:13;;;;;;;3.53;1.90;;;23.90;97.60;;;;;;4998882;28;20313;-93
2023/07/14 10:11:51;;;;;;;3.85;2.20;;;23.80;95.80;;;;;;4999253;28;20335;-92
2023/07/14 10:14:36;;;;;;;3.22;2.00;;;23.80;97.10;;;;;;4999576;28;20254;-89
2023/07/14 10:17:40;;;;;;;5.78;2.20;;;24.00;96.20;;;;;;4997590;28;20175;-95
2023/07/14 10:20:16;;;;;;;4.68;2.13;;;24.10;96.80;;;;;;5001954;28;20175;-93
2023/07/14 10:22:42;;;;;;;3.70;2.15;;;24.20;94.30;;;;;;4999394;28;20187;-94
2023/07/14 10:25:18;;;;;;;3.53;1.70;;;24.20;96.10;;;;;;4999372;28;20685;-95
2023/07/14 10:28:11;;;;;;;3.75;1.70;;;24.30;97.60;;;;;;4999286;28;20207;-95
2023/07/14 10:30:47;;;;;;;2.28;1.52;;;24.40;95.90;;;;;;5004665;28;20171;-95
2023/07/14 10:33:28;;;;;;;2.30;1.80;;;24.40;94.20;;;;;;5001128;28;20182;-91
2023/07/14 10:36:12;;;;;;;4.25;2.00;;;24.40;96.60;;;;;;5005435;28;20168;-96
2023/07/14 10:38:46;;;;;;;6.45;1.75;;;24.40;94.30;;;;;;4998623;28;20226;-94
2023/07/14 10:41:13;;;;;;;5.05;1.90;;;24.40;94.10;;;;;;5001198;28;20163;-92
2023/07/14 10:43:47;;;;;;;3.85;2.13;;;24.50;93.30;;;;;;4998492;28;20278;-94
2023/07/14 10:46:27;;;;;;;3.17;1.70;;;24.50;94.30;;;;;;4999623;28;20548;-94
2023/07/14 10:48:59;;;;;;;3.05;1.90;;;24.70;93.60;;;;;;4999676;28;20642;-96
2023/07/14 10:51:43;;;;;;;2.90;1.65;;;24.80;94.90;;;;;;4999054;28;20258;-92
2023/07/14 10:54:17;;;;;;;4.43;2.22;;;24.70;95.50;;;;;;5000062;28;20254;-94
2023/07/14 10:56:48;;;;;;;5.55;2.00;;;24.40;94.80;;;;;;5019461;28;20205;-93
2023/07/14 10:59:53;;;;;;;4.65;1.95;;;24.30;94.40;;;;;;4998057;28;20694;-93
2023/07/14 11:02:39;;;;;;;4.28;2.10;;;24.60;94.50;;;;;;5000152;28;20614;-95
2023/07/14 11:05:14;;;;;;;3.75;2.05;;;24.70;94.30;;;;;;4998703;28;20271;-90
2023/07/14 11:07:40;;;;;;;3.47;2.20;;;25.00;94.70;;;;;;4998620;28;20229;-96
2023/07/14 11:10:24;;;;;;;4.80;2.20;;;25.10;94.20;;;;;;4999997;28;20179;-93
2023/07/14 11:12:55;;;;;;;3.15;1.90;;;25.20;92.40;;;;;;4998795;28;20175;-89
2023/07/14 11:15:26;;;;;;;3.55;2.10;;;25.00;92.30;;;;;;4997871;28;20176;-91
2023/07/14 11:18:24;;;;;;;4.22;1.73;;;24.70;94.90;;;;;;4997618;28;20175;-90
2023/07/14 11:21:13;;;;;;;3.58;2.00;;;24.20;93.40;;;;;;4988431;28;20199;-94
2023/07/14 11:23:52;;;;;;;2.90;1.92;;;24.00;92.50;;;;;;4994009;28;20183;-93
2023/07/14 11:26:24;;;;;;;3.83;1.88;;;23.90;96.00;;;;;;4978567;28;20637;-92
2023/07/14 11:29:22;;;;;;;3.15;2.00;;;24.20;94.80;;;;;;4978907;28;20222;-94
2023/07/14 11:31:56;;;;;;;3.53;2.20;;;24.70;96.20;;;;;;4981243;28;20183;-92
2023/07/14 11:34:40;;;;;;;3.33;2.10;;;25.00;93.40;;;;;;4978823;28;20640;-93
2023/07/14 11:37:22;;;;;;;3.90;2.10;;;25.10;93.30;;;;;;4995775;28;20642;-91
2023/07/14 11:43:00;;;;;;;3.08;2.05;;;24.80;92.80;;;;;;4996710;28;20175;-94
2023/07/14 11:45:32;;;;;;;4.75;2.45;;;24.40;93.50;;;;;;4979313;28;20183;-95
2023/07/14 11:48:00;;;;;;;4.35;2.25;;;24.30;94.10;;;;;;4978917;28;20207;-89
2023/07/14 11:50:34;;;;;;;2.75;1.80;;;24.70;94.40;;;;;;4978359;28;20187;-93
2023/07/14 11:53:05;;;;;;;4.78;2.70;;;25.00;92.30;;;;;;4994663;28;20317;-91
2023/07/14 11:55:33;;;;;;;3.00;1.90;;;24.90;92.20;;;;;;4997660;28;20194;-90
2023/07/14 11:58:27;;;;;;;6.10;2.00;;;24.90;93.00;;;;;;5015842;28;20175;-93
2023/07/14 12:01:03;;;;;;;6.30;2.40;;;24.70;92.70;;;;;;4997315;28;20176;-91
2023/07/14 12:03:38;;;;;;;3.95;2.00;;;24.50;95.00;;;;;;4997236;28;20568;-95
2023/07/14 12:06:43;;;;;;;3.00;2.13;;;24.20;95.00;;;;;;4997740;28;20178;-91
2023/07/14 12:09:14;;;;;;;3.85;2.10;;;24.00;94.80;;;;;;4998779;28;20211;-96
2023/07/14 12:11:39;;;;;;;5.07;2.30;;;24.20;93.40;;;;;;4998020;28;20179;-90
2023/07/14 12:14:25;;;;;;;4.35;2.28;;;24.60;91.50;;;;;;4997394;28;20179;-94
2023/07/14 12:16:50;;;;;;;3.17;1.92;;;25.20;95.40;;;;;;4997784;28;20511;-89
2023/07/14 12:19:37;;;;;;;4.18;2.30;;;25.70;92.80;;;;;;4997723;28;20251;-91
2023/07/14 12:22:08;;;;;;;4.63;2.35;;;25.90;92.70;;;;;;5015129;28;20254;-95
2023/07/14 12:24:47;;;;;;;3.00;1.95;;;26.00;91.50;;;;;;5015796;28;20172;-92
2023/07/14 12:27:19;;;;;;;4.32;2.28;;;25.70;91.60;;;;;;4999226;28;20566;-95
2023/07/14 12:29:50;;;;;;;3.08;1.95;;;25.30;92.40;;;;;;4997782;28;20184;-96
2023/07/14 12:32:18;;;;;;;3.00;2.20;;;25.30;93.00;;;;;;4997757;28;20171;-95
2023/07/14 12:34:46;;;;;;;4.22;2.10;;;25.50;91.30;;;;;;4997988;28;20202;-92
2023/07/14 12:37:18;;;;;;;5.75;2.22;;;25.80;92.50;;;;;;5000833;28;20176;-92
2023/07/14 12:39:47;;;;;;;5.03;2.45;;;26.30;90.60;;;;;;5002812;28;20184;-94
2023/07/14 12:42:14;;;;;;;3.30;2.08;;;26.50;90.30;;;;;;5002181;28;20190;-95
2023/07/14 12:44:40;;;;;;;3.22;2.10;;;26.60;89.70;;;;;;5018340;28;20191;-91
2023/07/14 12:47:16;;;;;;;4.10;2.13;;;26.60;91.00;;;;;;5000557;28;20633;-92
2023/07/14 12:49:47;;;;;;;2.97;1.98;;;26.70;91.00;;;;;;5018498;28;20175;-96
2023/07/14 12:52:21;;;;;;;3.83;2.15;;;26.90;91.70;;;;;;5010117;28;20278;-94
2023/07/14 12:54:48;;;;;;;3.25;2.10;;;26.80;90.70;;;;;;4998714;28;20239;-95
2023/07/14 12:57:16;;;;;;;6.78;1.98;;;26.60;91.10;;;;;;4984096;28;20176;-94
2023/07/14 12:59:51;;;;;;;3.05;2.40;;;26.40;90.20;;;;;;4985019;28;20484;-95
2023/07/14 13:02:18;;;;;;;3.78;2.25;;;26.50;91.80;;;;;;4999718;28;20182;-91
2023/07/14 13:04:45;;;;;;;3.28;1.85;;;26.30;91.10;;;;;;4981077;28;20525;-90
2023/07/14 13:07:22;;;;;;;2.63;2.00;;;26.20;90.40;;;;;;4981780;28;20176;-92
2023/07/14 13:10:09;;;;;;;4.72;2.72;;;26.00;90.20;;;;;;4981199;28;20183;-92
2023/07/14 13:12:36;;;;;;;5.00;2.15;;;25.60;90.30;;;;;;4981989;28;20537;-91
2023/07/14 13:15:05;;;;;;;3.67;2.15;;;25.60;90.50;;;;;;4981978;28;20324;-96